createdAt,value
2018-03-03T00:00:38.702Z,-7.17
2018-03-03T00:01:39.109Z,-7.00
2018-03-03T00:02:39.534Z,-7.05
2018-03-03T00:03:39.938Z,-7.17
2018-03-03T00:04:40.352Z,-7.13
2018-03-03T00:05:40.765Z,-7.25
2018-03-03T00:06:41.168Z,-7.18
2018-03-03T00:07:41.583Z,-7.11
2018-03-03T00:08:41.994Z,-7.29
2018-03-03T00:09:42.406Z,-7.26
2018-03-03T00:10:42.816Z,-7.26
2018-03-03T00:11:43.234Z,-7.25
2018-03-03T00:12:43.644Z,-7.22
2018-03-03T00:13:44.056Z,-7.25
2018-03-03T00:14:44.470Z,-7.25
2018-03-03T00:15:44.882Z,-7.35
2018-03-03T00:16:45.291Z,-7.25
2018-03-03T00:17:45.700Z,-7.28
2018-03-03T00:18:46.119Z,-7.36
2018-03-03T00:19:46.526Z,-7.28
2018-03-03T00:20:46.939Z,-7.40
2018-03-03T00:21:47.352Z,-7.33
2018-03-03T00:22:47.763Z,-7.40
2018-03-03T00:23:48.173Z,-7.36
2018-03-03T00:24:48.586Z,-7.32
2018-03-03T00:25:49.002Z,-7.38
2018-03-03T00:26:49.413Z,-7.42
2018-03-03T00:27:49.827Z,-7.36
2018-03-03T00:28:50.242Z,-7.33
2018-03-03T00:29:50.648Z,-7.36
2018-03-03T00:30:51.063Z,-7.35
2018-03-03T00:31:51.471Z,-7.38
2018-03-03T00:32:51.880Z,-7.42
2018-03-03T00:33:52.297Z,-7.58
2018-03-03T00:34:52.710Z,-7.40
2018-03-03T00:35:53.119Z,-7.43
2018-03-03T00:36:53.532Z,-7.33
2018-03-03T00:37:53.947Z,-7.40
2018-03-03T00:38:54.363Z,-7.38
2018-03-03T00:39:54.785Z,-7.40
2018-03-03T00:40:55.188Z,-7.50
2018-03-03T00:41:55.600Z,-7.56
2018-03-03T00:42:56.001Z,-7.47
2018-03-03T00:43:56.419Z,-7.53
2018-03-03T00:44:56.831Z,-7.52
2018-03-03T00:45:57.238Z,-7.49
2018-03-03T00:46:57.650Z,-7.60
2018-03-03T00:47:58.062Z,-7.50
2018-03-03T00:48:58.474Z,-7.50
2018-03-03T00:49:58.890Z,-7.53
2018-03-03T00:50:59.296Z,-7.42
2018-03-03T00:51:59.718Z,-7.46
2018-03-03T00:53:00.125Z,-7.42
2018-03-03T00:54:00.544Z,-7.50
2018-03-03T00:55:00.944Z,-7.60
2018-03-03T00:56:01.357Z,-7.61
2018-03-03T00:57:01.768Z,-7.58
2018-03-03T00:58:02.180Z,-7.47
2018-03-03T00:59:02.595Z,-7.50
2018-03-03T01:00:03.005Z,-7.54
2018-03-03T01:01:03.426Z,-7.52
2018-03-03T01:02:03.830Z,-7.61
2018-03-03T01:03:04.240Z,-7.61
2018-03-03T01:04:04.663Z,-7.60
2018-03-03T01:05:05.073Z,-7.58
2018-03-03T01:06:05.473Z,-7.64
2018-03-03T01:07:05.893Z,-7.63
2018-03-03T01:08:06.298Z,-7.65
2018-03-03T01:09:06.715Z,-7.61
2018-03-03T01:10:07.124Z,-7.58
2018-03-03T01:11:07.532Z,-7.56
2018-03-03T01:12:07.951Z,-7.58
2018-03-03T01:13:08.366Z,-7.63
2018-03-03T01:14:08.770Z,-7.58
2018-03-03T01:15:09.186Z,-7.63
2018-03-03T01:16:09.595Z,-7.63
2018-03-03T01:17:10.010Z,-7.63
2018-03-03T01:18:10.422Z,-7.60
2018-03-03T01:19:10.826Z,-7.60
2018-03-03T01:20:11.242Z,-7.58
2018-03-03T01:21:11.654Z,-7.70
2018-03-03T01:22:12.068Z,-7.72
2018-03-03T01:23:12.474Z,-7.71
2018-03-03T01:24:12.892Z,-7.67
2018-03-03T01:25:13.301Z,-7.63
2018-03-03T01:26:13.721Z,-7.68
2018-03-03T01:27:14.118Z,-7.68
2018-03-03T01:28:14.545Z,-7.68
2018-03-03T01:29:14.950Z,-7.68
2018-03-03T01:30:15.363Z,-7.63
2018-03-03T01:31:15.771Z,-7.65
2018-03-03T01:32:16.179Z,-7.70
2018-03-03T01:33:16.593Z,-7.68
2018-03-03T01:34:17.016Z,-7.65
2018-03-03T01:35:17.422Z,-7.72
2018-03-03T01:36:17.829Z,-7.78
2018-03-03T01:37:18.241Z,-7.88
2018-03-03T01:38:18.653Z,-7.75
2018-03-03T01:39:19.062Z,-7.68
2018-03-03T01:40:19.476Z,-7.85
2018-03-03T01:41:19.885Z,-7.81
2018-03-03T01:42:20.296Z,-7.81
2018-03-03T01:43:20.710Z,-7.74
2018-03-03T01:44:21.122Z,-7.81
2018-03-03T01:45:21.534Z,-7.83
2018-03-03T01:46:21.943Z,-7.93
2018-03-03T01:47:22.358Z,-7.78
2018-03-03T01:48:22.764Z,-7.89
2018-03-03T01:49:23.180Z,-7.89
2018-03-03T01:50:23.588Z,-7.92
2018-03-03T01:51:24.004Z,-7.91
2018-03-03T01:52:24.409Z,-7.93
2018-03-03T01:53:24.830Z,-7.81
2018-03-03T01:54:25.240Z,-7.89
2018-03-03T01:55:25.654Z,-7.86
2018-03-03T01:56:26.067Z,-7.86
2018-03-03T01:57:26.473Z,-7.93
2018-03-03T01:58:26.885Z,-7.83
2018-03-03T01:59:27.295Z,-7.85
2018-03-03T02:00:27.705Z,-7.83
2018-03-03T02:01:28.116Z,-7.82
2018-03-03T02:02:28.530Z,-7.86
2018-03-03T02:03:28.950Z,-7.91
2018-03-03T02:04:29.357Z,-7.89
2018-03-03T02:05:29.766Z,-7.97
2018-03-03T02:06:30.174Z,-7.85
2018-03-03T02:07:30.592Z,-7.82
2018-03-03T02:08:31.003Z,-7.82
2018-03-03T02:09:31.413Z,-7.91
2018-03-03T02:10:31.848Z,-7.88
2018-03-03T02:11:32.237Z,-7.86
2018-03-03T02:12:32.645Z,-7.89
2018-03-03T02:13:33.056Z,-7.85
2018-03-03T02:14:33.472Z,-7.89
2018-03-03T02:15:33.887Z,-7.99
2018-03-03T02:16:34.294Z,-7.99
2018-03-03T02:17:34.710Z,-8.08
2018-03-03T02:18:35.115Z,-7.99
2018-03-03T02:19:35.521Z,-7.97
2018-03-03T02:20:35.938Z,-7.93
2018-03-03T02:21:36.351Z,-8.19
2018-03-03T02:22:36.765Z,-8.18
2018-03-03T02:23:37.175Z,-8.10
2018-03-03T02:24:37.592Z,-8.21
2018-03-03T02:25:38.004Z,-8.05
2018-03-03T02:26:38.404Z,-8.04
2018-03-03T02:27:38.818Z,-8.21
2018-03-03T02:28:39.228Z,-8.32
2018-03-03T02:29:39.640Z,-8.19
2018-03-03T02:30:40.051Z,-8.28
2018-03-03T02:31:40.466Z,-8.26
2018-03-03T02:32:40.889Z,-8.34
2018-03-03T02:33:41.294Z,-8.34
2018-03-03T02:34:41.697Z,-8.25
2018-03-03T02:35:42.114Z,-8.28
2018-03-03T02:36:42.522Z,-8.18
2018-03-03T02:37:42.935Z,-8.29
2018-03-03T02:38:43.343Z,-8.31
2018-03-03T02:39:43.757Z,-8.23
2018-03-03T02:40:44.165Z,-8.29
2018-03-03T02:41:44.577Z,-8.29
2018-03-03T02:42:44.990Z,-8.26
2018-03-03T02:43:45.399Z,-8.26
2018-03-03T02:44:45.811Z,-8.23
2018-03-03T02:45:46.228Z,-8.34
2018-03-03T02:46:46.635Z,-8.42
2018-03-03T02:47:47.044Z,-8.32
2018-03-03T02:48:47.475Z,-8.36
2018-03-03T02:49:47.884Z,-8.32
2018-03-03T02:50:48.283Z,-8.37
2018-03-03T02:51:48.686Z,-8.40
2018-03-03T02:52:49.102Z,-8.58
2018-03-03T02:53:49.517Z,-8.44
2018-03-03T02:54:49.932Z,-8.39
2018-03-03T02:55:50.337Z,-8.28
2018-03-03T02:56:50.748Z,-8.29
2018-03-03T02:57:51.156Z,-8.36
2018-03-03T02:58:51.570Z,-8.44
2018-03-03T02:59:51.979Z,-8.43
2018-03-03T03:00:52.388Z,-8.40
2018-03-03T03:01:52.798Z,-8.31
2018-03-03T03:02:53.219Z,-8.31
2018-03-03T03:03:53.621Z,-8.34
2018-03-03T03:04:54.032Z,-8.46
2018-03-03T03:05:54.472Z,-8.43
2018-03-03T03:06:54.856Z,-8.43
2018-03-03T03:07:55.269Z,-8.49
2018-03-03T03:08:55.683Z,-8.57
2018-03-03T03:09:56.088Z,-8.44
2018-03-03T03:10:56.503Z,-8.40
2018-03-03T03:11:56.921Z,-8.44
2018-03-03T03:12:57.332Z,-8.43
2018-03-03T03:13:57.741Z,-8.62
2018-03-03T03:14:58.150Z,-8.49
2018-03-03T03:15:58.559Z,-8.57
2018-03-03T03:16:58.978Z,-8.57
2018-03-03T03:17:59.378Z,-8.47
2018-03-03T03:18:59.790Z,-8.47
2018-03-03T03:20:00.195Z,-8.60
2018-03-03T03:21:00.619Z,-8.47
2018-03-03T03:22:01.023Z,-8.44
2018-03-03T03:23:01.457Z,-8.58
2018-03-03T03:24:01.853Z,-8.55
2018-03-03T03:25:02.256Z,-8.39
2018-03-03T03:26:02.671Z,-8.42
2018-03-03T03:27:03.079Z,-8.44
2018-03-03T03:28:03.488Z,-8.44
2018-03-03T03:29:03.901Z,-8.42
2018-03-03T03:30:04.312Z,-8.44
2018-03-03T03:31:04.727Z,-8.47
2018-03-03T03:32:05.136Z,-8.54
2018-03-03T03:33:05.547Z,-8.57
2018-03-03T03:34:05.962Z,-8.49
2018-03-03T03:35:06.378Z,-8.60
2018-03-03T03:36:06.790Z,-8.61
2018-03-03T03:37:07.190Z,-8.60
2018-03-03T03:38:07.599Z,-8.62
2018-03-03T03:39:08.075Z,-8.55
2018-03-03T03:40:08.428Z,-8.46
2018-03-03T03:41:08.830Z,-8.49
2018-03-03T03:42:09.248Z,-8.47
2018-03-03T03:43:09.660Z,-8.46
2018-03-03T03:44:10.065Z,-8.57
2018-03-03T03:45:10.480Z,-8.60
2018-03-03T03:46:10.902Z,-8.60
2018-03-03T03:47:11.299Z,-8.62
2018-03-03T03:48:11.705Z,-8.57
2018-03-03T03:49:12.121Z,-8.57
2018-03-03T03:50:12.533Z,-8.57
2018-03-03T03:51:12.947Z,-8.60
2018-03-03T03:52:13.361Z,-8.57
2018-03-03T03:53:13.782Z,-8.60
2018-03-03T03:54:14.186Z,-8.61
2018-03-03T03:55:14.586Z,-8.60
2018-03-03T03:56:15.000Z,-8.61
2018-03-03T03:57:15.406Z,-8.65
2018-03-03T03:58:15.816Z,-8.62
2018-03-03T03:59:16.231Z,-8.79
2018-03-03T04:00:16.642Z,-8.76
2018-03-03T04:01:17.053Z,-8.65
2018-03-03T04:02:17.468Z,-8.64
2018-03-03T04:03:17.879Z,-8.62
2018-03-03T04:04:18.284Z,-8.65
2018-03-03T04:05:18.704Z,-8.75
2018-03-03T04:06:19.130Z,-8.75
2018-03-03T04:07:19.514Z,-8.76
2018-03-03T04:08:19.932Z,-8.68
2018-03-03T04:09:20.341Z,-8.65
2018-03-03T04:10:20.750Z,-8.68
2018-03-03T04:11:21.230Z,-8.62
2018-03-03T04:12:21.578Z,-8.64
2018-03-03T04:13:22.004Z,-8.62
2018-03-03T04:14:22.410Z,-8.68
2018-03-03T04:15:22.803Z,-8.76
2018-03-03T04:16:23.223Z,-8.76
2018-03-03T04:17:23.639Z,-8.68
2018-03-03T04:18:24.038Z,-8.70
2018-03-03T04:19:24.451Z,-8.61
2018-03-03T04:20:24.859Z,-8.76
2018-03-03T04:21:25.280Z,-8.75
2018-03-03T04:22:25.677Z,-8.78
2018-03-03T04:23:26.095Z,-8.79
2018-03-03T04:24:26.504Z,-8.83
2018-03-03T04:25:26.910Z,-8.86
2018-03-03T04:26:27.320Z,-8.82
2018-03-03T04:27:27.735Z,-8.78
2018-03-03T04:28:28.146Z,-8.75
2018-03-03T04:29:28.561Z,-8.88
2018-03-03T04:30:28.979Z,-8.81
2018-03-03T04:31:29.387Z,-8.88
2018-03-03T04:32:29.791Z,-8.97
2018-03-03T04:33:30.195Z,-8.83
2018-03-03T04:34:30.611Z,-8.92
2018-03-03T04:35:31.026Z,-8.94
2018-03-03T04:36:31.430Z,-8.97
2018-03-03T04:37:31.842Z,-9.00
2018-03-03T04:38:32.265Z,-9.04
2018-03-03T04:39:32.670Z,-9.00
2018-03-03T04:40:33.085Z,-8.96
2018-03-03T04:41:33.482Z,-9.02
2018-03-03T04:42:33.894Z,-8.97
2018-03-03T04:43:34.307Z,-9.11
2018-03-03T04:44:34.717Z,-8.97
2018-03-03T04:45:35.125Z,-8.88
2018-03-03T04:46:35.535Z,-8.99
2018-03-03T04:47:35.952Z,-9.02
2018-03-03T04:48:36.355Z,-9.00
2018-03-03T04:49:36.765Z,-9.04
2018-03-03T04:50:37.183Z,-9.03
2018-03-03T04:51:37.593Z,-9.00
2018-03-03T04:52:37.999Z,-9.00
2018-03-03T04:53:38.407Z,-9.02
2018-03-03T04:54:38.819Z,-9.04
2018-03-03T04:55:39.229Z,-8.97
2018-03-03T04:56:39.639Z,-9.11
2018-03-03T04:57:40.062Z,-9.02
2018-03-03T04:58:40.459Z,-9.03
2018-03-03T04:59:40.874Z,-8.96
2018-03-03T05:00:41.283Z,-8.97
2018-03-03T05:01:41.693Z,-9.03
2018-03-03T05:02:42.134Z,-9.04
2018-03-03T05:03:42.517Z,-9.10
2018-03-03T05:04:42.952Z,-9.02
2018-03-03T05:05:43.334Z,-8.96
2018-03-03T05:06:43.772Z,-9.11
2018-03-03T05:07:44.164Z,-9.03
2018-03-03T05:08:44.568Z,-9.14
2018-03-03T05:09:44.973Z,-9.12
2018-03-03T05:10:45.385Z,-9.04
2018-03-03T05:11:45.795Z,-9.07
2018-03-03T05:12:46.219Z,-9.03
2018-03-03T05:13:46.624Z,-9.04
2018-03-03T05:14:47.028Z,-9.11
2018-03-03T05:15:47.437Z,-9.03
2018-03-03T05:16:47.845Z,-9.18
2018-03-03T05:17:48.263Z,-9.10
2018-03-03T05:18:48.667Z,-9.15
2018-03-03T05:19:49.075Z,-9.10
2018-03-03T05:20:49.494Z,-9.10
2018-03-03T05:21:49.903Z,-9.06
2018-03-03T05:22:50.330Z,-9.10
2018-03-03T05:23:50.721Z,-9.14
2018-03-03T05:24:51.135Z,-9.10
2018-03-03T05:25:51.545Z,-9.00
2018-03-03T05:26:51.947Z,-9.07
2018-03-03T05:27:52.364Z,-9.07
2018-03-03T05:28:52.779Z,-9.04
2018-03-03T05:29:53.203Z,-9.06
2018-03-03T05:30:53.606Z,-9.10
2018-03-03T05:31:54.006Z,-9.06
2018-03-03T05:32:54.433Z,-9.15
2018-03-03T05:33:54.819Z,-9.10
2018-03-03T05:34:55.236Z,-9.11
2018-03-03T05:35:55.648Z,-9.04
2018-03-03T05:36:56.055Z,-9.15
2018-03-03T05:37:56.467Z,-9.14
2018-03-03T05:38:56.898Z,-9.17
2018-03-03T05:39:57.289Z,-9.07
2018-03-03T05:40:57.696Z,-9.14
2018-03-03T05:41:58.103Z,-9.11
2018-03-03T05:42:58.521Z,-9.14
2018-03-03T05:43:58.993Z,-9.20
2018-03-03T05:44:59.340Z,-9.10
2018-03-03T05:45:59.752Z,-9.07
2018-03-03T05:47:00.162Z,-9.03
2018-03-03T05:48:00.578Z,-9.02
2018-03-03T05:49:00.982Z,-9.02
2018-03-03T05:50:01.391Z,-8.93
2018-03-03T05:51:01.803Z,-8.97
2018-03-03T05:52:02.209Z,-8.97
2018-03-03T05:53:02.621Z,-9.12
2018-03-03T05:54:03.037Z,-9.10
2018-03-03T05:55:03.463Z,-9.07
2018-03-03T05:56:03.863Z,-9.02
2018-03-03T05:57:04.260Z,-8.94
2018-03-03T05:58:04.671Z,-8.83
2018-03-03T05:59:05.097Z,-8.92
2018-03-03T06:00:05.494Z,-9.04
2018-03-03T06:01:05.909Z,-8.97
2018-03-03T06:02:06.317Z,-8.92
2018-03-03T06:03:06.729Z,-9.03
2018-03-03T06:04:07.137Z,-8.99
2018-03-03T06:05:07.552Z,-8.88
2018-03-03T06:06:07.960Z,-9.04
2018-03-03T06:07:08.363Z,-8.97
2018-03-03T06:08:08.781Z,-9.02
2018-03-03T06:09:09.188Z,-8.99
2018-03-03T06:10:09.598Z,-8.97
2018-03-03T06:11:10.010Z,-9.00
2018-03-03T06:12:10.422Z,-9.07
2018-03-03T06:13:10.833Z,-8.99
2018-03-03T06:14:11.240Z,-9.10
2018-03-03T06:15:11.666Z,-8.99
2018-03-03T06:16:12.064Z,-8.94
2018-03-03T06:17:12.470Z,-9.03
2018-03-03T06:18:12.890Z,-9.12
2018-03-03T06:19:13.298Z,-8.97
2018-03-03T06:20:13.720Z,-9.00
2018-03-03T06:21:14.125Z,-9.03
2018-03-03T06:22:14.530Z,-8.93
2018-03-03T06:23:14.938Z,-8.93
2018-03-03T06:24:15.347Z,-8.88
2018-03-03T06:25:15.764Z,-8.90
2018-03-03T06:26:16.170Z,-9.00
2018-03-03T06:27:16.588Z,-8.94
2018-03-03T06:28:16.995Z,-8.99
2018-03-03T06:29:17.406Z,-8.96
2018-03-03T06:30:17.817Z,-8.82
2018-03-03T06:31:18.221Z,-8.83
2018-03-03T06:32:18.636Z,-8.97
2018-03-03T06:33:19.043Z,-8.86
2018-03-03T06:34:19.452Z,-8.82
2018-03-03T06:35:19.873Z,-8.83
2018-03-03T06:36:20.290Z,-8.83
2018-03-03T06:37:20.747Z,-8.83
2018-03-03T06:38:21.114Z,-8.79
2018-03-03T06:39:21.511Z,-8.83
2018-03-03T06:40:21.920Z,-8.73
2018-03-03T06:41:22.332Z,-8.81
2018-03-03T06:42:22.743Z,-8.78
2018-03-03T06:43:23.153Z,-8.79
2018-03-03T06:44:23.564Z,-8.67
2018-03-03T06:45:23.974Z,-8.62
2018-03-03T06:46:24.387Z,-8.62
2018-03-03T06:47:24.799Z,-8.76
2018-03-03T06:48:25.206Z,-8.60
2018-03-03T06:49:25.630Z,-8.44
2018-03-03T06:50:26.041Z,-8.47
2018-03-03T06:51:26.438Z,-8.58
2018-03-03T06:52:26.852Z,-8.43
2018-03-03T06:53:27.262Z,-8.34
2018-03-03T06:54:27.672Z,-8.34
2018-03-03T06:55:28.086Z,-8.43
2018-03-03T06:56:28.505Z,-8.43
2018-03-03T06:57:28.915Z,-8.49
2018-03-03T06:58:29.319Z,-8.44
2018-03-03T06:59:29.729Z,-8.52
2018-03-03T07:00:30.142Z,-8.42
2018-03-03T07:01:30.558Z,-8.46
2018-03-03T07:02:30.967Z,-8.46
2018-03-03T07:03:31.373Z,-8.34
2018-03-03T07:04:31.792Z,-8.32
2018-03-03T07:05:32.200Z,-8.32
2018-03-03T07:06:32.608Z,-8.28
2018-03-03T07:07:33.029Z,-8.31
2018-03-03T07:08:33.433Z,-8.29
2018-03-03T07:09:33.850Z,-8.22
2018-03-03T07:10:34.280Z,-8.07
2018-03-03T07:11:34.662Z,-8.05
2018-03-03T07:12:35.076Z,-8.15
2018-03-03T07:13:35.491Z,-8.03
2018-03-03T07:14:35.901Z,-7.97
2018-03-03T07:15:36.313Z,-8.01
2018-03-03T07:16:36.730Z,-8.07
2018-03-03T07:17:37.166Z,-8.08
2018-03-03T07:18:37.560Z,-8.21
2018-03-03T07:20:02.191Z,-8.29
2018-03-03T07:20:45.105Z,-8.18
2018-03-03T07:21:38.779Z,-8.11
2018-03-03T07:22:39.194Z,-8.04
2018-03-03T07:23:39.603Z,-7.96
2018-03-03T07:24:40.017Z,-7.92
2018-03-03T07:25:40.427Z,-7.89
2018-03-03T07:26:40.839Z,-7.89
2018-03-03T07:27:41.382Z,-7.91
2018-03-03T07:28:41.674Z,-7.75
2018-03-03T07:29:42.076Z,-7.65
2018-03-03T07:30:42.492Z,-7.65
2018-03-03T07:31:42.909Z,-7.53
2018-03-03T07:32:43.310Z,-7.58
2018-03-03T07:33:43.718Z,-7.65
2018-03-03T07:34:44.137Z,-7.56
2018-03-03T07:35:51.094Z,-7.60
2018-03-03T07:36:44.960Z,-7.65
2018-03-03T07:37:45.380Z,-7.70
2018-03-03T07:38:45.797Z,-7.63
2018-03-03T07:41:27.079Z,-7.36
2018-03-03T07:42:19.758Z,-7.32
2018-03-03T07:44:14.303Z,-7.25
2018-03-03T07:45:14.706Z,-7.54
2018-03-03T07:47:09.285Z,-7.23
2018-03-03T07:49:24.072Z,-7.11
2018-03-03T07:50:24.421Z,-7.28
2018-03-03T07:52:19.003Z,-7.03
2018-03-03T07:53:19.410Z,-7.10
2018-03-03T07:55:14.966Z,-7.05
2018-03-03T07:56:15.362Z,-6.92
2018-03-03T07:58:09.932Z,-7.00
2018-03-03T07:59:10.365Z,-6.99
2018-03-03T08:01:04.933Z,-6.92
2018-03-03T08:02:06.169Z,-6.97
2018-03-03T08:03:59.962Z,-6.79
2018-03-03T08:05:03.126Z,-6.76
2018-03-03T08:06:03.647Z,-6.58
2018-03-03T08:07:01.177Z,-6.65
2018-03-03T08:08:01.591Z,-6.47
2018-03-03T08:09:02.006Z,-6.54
2018-03-03T08:10:02.423Z,-6.36
2018-03-03T08:11:02.829Z,-6.29
2018-03-03T08:12:03.349Z,-6.21
2018-03-03T08:13:03.643Z,-6.15
2018-03-03T08:14:04.068Z,-6.11
2018-03-03T08:15:04.475Z,-6.10
2018-03-03T08:16:04.889Z,-6.15
2018-03-03T08:17:05.302Z,-5.85
2018-03-03T08:18:05.711Z,-5.81
2018-03-03T08:19:06.132Z,-5.71
2018-03-03T08:20:06.543Z,-5.81
2018-03-03T08:21:06.971Z,-6.10
2018-03-03T08:22:07.429Z,-6.20
2018-03-03T08:23:07.785Z,-5.89
2018-03-03T08:24:08.210Z,-5.85
2018-03-03T08:25:08.643Z,-5.66
2018-03-03T08:26:09.030Z,-5.66
2018-03-03T08:27:09.437Z,-5.66
2018-03-03T08:28:09.860Z,-5.58
2018-03-03T08:29:11.131Z,-5.47
2018-03-03T08:30:10.675Z,-5.43
2018-03-03T08:31:11.092Z,-5.36
2018-03-03T08:32:11.510Z,-5.42
2018-03-03T08:33:11.994Z,-5.25
2018-03-03T08:34:12.362Z,-5.08
2018-03-03T08:35:12.748Z,-5.05
2018-03-03T08:36:13.196Z,-4.71
2018-03-03T08:37:13.602Z,-4.75
2018-03-03T08:38:13.992Z,-4.61
2018-03-03T08:39:14.423Z,-4.43
2018-03-03T08:40:14.826Z,-4.13
2018-03-03T08:41:15.234Z,-3.80
2018-03-03T08:42:15.652Z,-3.16
2018-03-03T08:43:16.085Z,-2.70
2018-03-03T08:44:17.138Z,-2.08
2018-03-03T08:45:16.946Z,-1.65
2018-03-03T08:46:17.366Z,-1.32
2018-03-03T08:47:17.791Z,-1.69
2018-03-03T08:48:18.200Z,-1.53
2018-03-03T08:49:18.572Z,-1.61
2018-03-03T08:50:18.995Z,-1.25
2018-03-03T08:51:19.449Z,-1.56
2018-03-03T08:52:19.868Z,-1.53
2018-03-03T08:53:20.283Z,-1.61
2018-03-03T08:54:20.701Z,-1.54
2018-03-03T08:55:21.120Z,-1.44
2018-03-03T08:56:21.545Z,-2.21
2018-03-03T08:57:21.967Z,-2.18
2018-03-03T08:58:22.357Z,-2.32
2018-03-03T08:59:23.723Z,-2.66
2018-03-03T09:00:23.265Z,-2.22
2018-03-03T09:01:23.617Z,-2.22
2018-03-03T09:02:24.052Z,-2.07
2018-03-03T09:03:24.483Z,-2.16
2018-03-03T09:04:24.889Z,-2.28
2018-03-03T09:05:25.313Z,-2.04
2018-03-03T09:06:25.748Z,-1.76
2018-03-03T09:07:26.169Z,-1.77
2018-03-03T09:08:26.582Z,-1.47
2018-03-03T09:09:27.010Z,-1.44
2018-03-03T09:10:27.399Z,-1.92
2018-03-03T09:11:27.853Z,-2.22
2018-03-03T09:12:28.263Z,-2.02
2018-03-03T09:13:28.713Z,-1.56
2018-03-03T09:14:29.123Z,-1.11
2018-03-03T09:15:29.541Z,-0.65
2018-03-03T09:16:29.962Z,-1.82
2018-03-03T09:17:30.384Z,-1.58
2018-03-03T09:18:30.772Z,-1.46
2018-03-03T09:19:31.222Z,-1.48
2018-03-03T09:20:31.619Z,-1.79
2018-03-03T09:21:32.038Z,-2.04
2018-03-03T09:22:32.482Z,-2.28
2018-03-03T09:23:32.916Z,-2.12
2018-03-03T09:24:33.296Z,-2.18
2018-03-03T09:25:33.753Z,-2.13
2018-03-03T09:26:34.164Z,-1.71
2018-03-03T09:27:34.577Z,-1.58
2018-03-03T09:28:34.997Z,-1.19
2018-03-03T09:29:35.413Z,-0.75
2018-03-03T09:30:35.834Z,-1.04
2018-03-03T09:31:36.268Z,-0.78
2018-03-03T09:32:36.704Z,-0.65
2018-03-03T09:33:37.120Z,-0.72
2018-03-03T09:34:37.544Z,-0.96
2018-03-03T09:35:38.004Z,-0.70
2018-03-03T09:36:38.370Z,-0.23
2018-03-03T09:37:53.679Z,-0.38
2018-03-03T09:38:39.195Z,-0.14
2018-03-03T09:39:39.648Z,-0.11
2018-03-03T09:40:40.072Z,0.12
2018-03-03T09:41:40.490Z,0.04
2018-03-03T09:42:40.967Z,0.11
2018-03-03T09:43:41.330Z,0.05
2018-03-03T09:44:41.765Z,0.07
2018-03-03T09:45:42.180Z,0.32
2018-03-03T09:46:42.633Z,0.56
2018-03-03T09:47:43.056Z,0.05
2018-03-03T09:48:43.470Z,0.74
2018-03-03T09:49:43.887Z,0.41
2018-03-03T09:50:44.333Z,0.28
2018-03-03T09:51:44.751Z,-0.14
2018-03-03T09:52:45.148Z,-0.03
2018-03-03T09:53:45.568Z,-0.50
2018-03-03T09:54:46.010Z,-0.06
2018-03-03T09:55:46.420Z,0.08
2018-03-03T09:56:46.846Z,0.04
2018-03-03T09:57:47.301Z,-0.18
2018-03-03T09:59:02.663Z,0.05
2018-03-03T09:59:48.123Z,0.56
2018-03-03T10:00:48.550Z,1.31
2018-03-03T10:01:52.332Z,1.56
2018-03-03T10:02:49.427Z,1.42
2018-03-03T10:04:13.664Z,1.71
2018-03-03T10:04:50.267Z,1.53
2018-03-03T10:05:50.686Z,1.17
2018-03-03T10:08:24.489Z,2.08
2018-03-03T10:09:24.717Z,1.74
2018-03-03T10:11:19.295Z,1.01
2018-03-03T10:12:19.699Z,1.01
2018-03-03T10:14:16.061Z,1.67
2018-03-03T10:15:14.809Z,1.67
2018-03-03T10:17:33.568Z,2.32
2018-03-03T10:18:09.787Z,2.26
2018-03-03T10:20:04.445Z,2.77
2018-03-03T10:21:04.860Z,2.93
2018-03-03T10:22:59.468Z,3.51
2018-03-03T10:24:00.018Z,2.72
2018-03-03T10:25:54.506Z,2.10
2018-03-03T10:26:57.723Z,1.88
2018-03-03T10:30:26.835Z,1.20
2018-03-03T10:31:24.167Z,1.05
2018-03-03T10:33:19.798Z,0.63
2018-03-03T10:34:20.395Z,1.16
2018-03-03T10:36:15.008Z,1.92
2018-03-03T10:37:15.296Z,1.81
2018-03-03T10:38:15.741Z,1.85
2018-03-03T10:39:16.299Z,2.49
2018-03-03T10:40:16.489Z,2.75
2018-03-03T10:41:16.865Z,2.33
2018-03-03T10:42:17.322Z,2.10
2018-03-03T10:43:17.790Z,2.49
2018-03-03T10:44:18.141Z,2.86
2018-03-03T10:45:18.605Z,2.83
2018-03-03T10:46:19.004Z,2.50
2018-03-03T10:47:19.477Z,3.08
2018-03-03T10:48:19.886Z,3.21
2018-03-03T10:49:20.398Z,3.25
2018-03-03T10:50:20.758Z,3.22
2018-03-03T10:51:21.178Z,3.18
2018-03-03T10:52:21.584Z,3.00
2018-03-03T10:53:22.045Z,2.97
2018-03-03T10:54:22.470Z,2.33
2018-03-03T10:55:22.882Z,2.13
2018-03-03T10:56:23.364Z,1.55
2018-03-03T10:57:23.728Z,1.91
2018-03-03T10:58:24.146Z,2.22
2018-03-03T10:59:24.580Z,3.13
2018-03-03T11:00:25.017Z,3.00
2018-03-03T11:01:25.484Z,3.63
2018-03-03T11:02:28.440Z,3.78
2018-03-03T11:03:26.341Z,4.30
2018-03-03T11:04:26.734Z,4.42
2018-03-03T11:05:30.017Z,4.86
2018-03-03T11:06:27.601Z,3.45
2018-03-03T11:07:28.022Z,3.77
2018-03-03T11:08:28.456Z,3.86
2018-03-03T11:09:28.891Z,4.56
2018-03-03T11:10:29.302Z,4.60
2018-03-03T11:11:29.752Z,3.76
2018-03-03T11:12:30.165Z,3.29
2018-03-03T11:13:30.595Z,4.14
2018-03-03T11:14:31.033Z,4.13
2018-03-03T11:15:31.462Z,3.94
2018-03-03T11:16:31.886Z,3.50
2018-03-03T11:17:32.319Z,3.51
2018-03-03T11:18:32.749Z,3.56
2018-03-03T11:19:33.173Z,3.23
2018-03-03T11:20:33.624Z,2.89
2018-03-03T11:21:34.047Z,2.61
2018-03-03T11:22:36.457Z,1.84
2018-03-03T11:23:34.901Z,1.49
2018-03-03T11:24:35.339Z,1.41
2018-03-03T11:25:35.779Z,1.50
2018-03-03T11:26:36.194Z,2.25
2018-03-03T11:27:36.675Z,1.88
2018-03-03T11:28:58.222Z,1.81
2018-03-03T11:29:37.490Z,2.07
2018-03-03T11:30:37.902Z,2.67
2018-03-03T11:31:38.331Z,3.45
2018-03-03T11:32:38.771Z,4.32
2018-03-03T11:33:39.204Z,5.17
2018-03-03T11:34:39.632Z,5.98
2018-03-03T11:35:40.054Z,5.79
2018-03-03T11:36:45.476Z,6.14
2018-03-03T11:37:40.944Z,4.67
2018-03-03T11:38:41.988Z,4.28
2018-03-03T11:39:41.804Z,4.90
2018-03-03T11:40:43.989Z,4.42
2018-03-03T11:41:42.648Z,3.68
2018-03-03T11:42:43.121Z,3.87
2018-03-03T11:43:43.507Z,4.49
2018-03-03T11:44:58.487Z,4.55
2018-03-03T11:45:44.431Z,5.82
2018-03-03T11:46:44.795Z,4.52
2018-03-03T11:47:45.257Z,4.60
2018-03-03T11:48:45.664Z,5.23
2018-03-03T11:49:46.091Z,4.82
2018-03-03T11:50:46.546Z,4.52
2018-03-03T11:51:46.972Z,3.60
2018-03-03T11:52:47.384Z,2.29
2018-03-03T11:53:47.818Z,2.13
2018-03-03T11:54:48.249Z,1.22
2018-03-03T11:55:48.688Z,1.32
2018-03-03T11:56:49.163Z,0.83
2018-03-03T11:57:49.557Z,0.28
2018-03-03T11:58:49.970Z,0.23
2018-03-03T11:59:50.398Z,-0.23
2018-03-03T12:00:50.834Z,-0.18
2018-03-03T12:01:51.246Z,0.15
2018-03-03T12:02:51.654Z,0.23
2018-03-03T12:03:52.103Z,0.08
2018-03-03T12:04:52.501Z,0.12
2018-03-03T12:05:52.973Z,0.11
2018-03-03T12:06:53.381Z,0.12
2018-03-03T12:07:53.775Z,-0.23
2018-03-03T12:08:54.220Z,-0.39
2018-03-03T12:09:54.639Z,-0.36
2018-03-03T12:10:55.045Z,-0.28
2018-03-03T12:11:55.454Z,-0.34
2018-03-03T12:12:55.894Z,-0.99
2018-03-03T12:13:56.304Z,-1.05
2018-03-03T12:14:56.743Z,-0.72
2018-03-03T12:15:57.147Z,-0.62
2018-03-03T12:16:57.574Z,-0.78
2018-03-03T12:17:57.991Z,-0.70
2018-03-03T12:18:58.416Z,-0.77
2018-03-03T12:19:58.830Z,-0.82
2018-03-03T12:20:59.249Z,-1.01
2018-03-03T12:21:59.672Z,-1.22
2018-03-03T12:23:00.092Z,-0.99
2018-03-03T12:24:00.508Z,-0.89
2018-03-03T12:25:00.938Z,-0.85
2018-03-03T12:26:01.345Z,-0.93
2018-03-03T12:27:01.774Z,-0.83
2018-03-03T12:28:02.182Z,-0.83
2018-03-03T12:29:02.596Z,-0.83
2018-03-03T12:30:03.025Z,-0.86
2018-03-03T12:31:03.485Z,-0.89
2018-03-03T12:32:03.854Z,-0.86
2018-03-03T12:33:04.279Z,-1.01
2018-03-03T12:34:04.736Z,-0.83
2018-03-03T12:35:05.114Z,-0.96
2018-03-03T12:36:05.555Z,-1.12
2018-03-03T12:37:05.951Z,-1.07
2018-03-03T12:38:06.372Z,-0.97
2018-03-03T12:39:06.791Z,-1.04
2018-03-03T12:40:07.208Z,-0.99
2018-03-03T12:41:07.624Z,-0.83
2018-03-03T12:42:08.050Z,-1.01
2018-03-03T12:43:08.462Z,-1.14
2018-03-03T12:44:08.878Z,-1.14
2018-03-03T12:45:09.303Z,-1.11
2018-03-03T12:46:09.724Z,-1.11
2018-03-03T12:47:10.144Z,-1.22
2018-03-03T12:48:10.572Z,-0.97
2018-03-03T12:49:10.979Z,-0.82
2018-03-03T12:50:11.412Z,-0.77
2018-03-03T12:51:11.810Z,-0.91
2018-03-03T12:52:12.259Z,-0.96
2018-03-03T12:53:12.666Z,-0.90
2018-03-03T12:54:13.088Z,-1.08
2018-03-03T12:55:13.474Z,-0.90
2018-03-03T12:56:13.895Z,-0.91
2018-03-03T12:57:14.310Z,-0.85
2018-03-03T12:58:14.728Z,-0.78
2018-03-03T12:59:15.185Z,-0.74
2018-03-03T13:00:15.586Z,-0.82
2018-03-03T13:01:15.984Z,-1.01
2018-03-03T13:02:16.412Z,-0.86
2018-03-03T13:03:16.825Z,-0.86
2018-03-03T13:04:17.308Z,-0.71
2018-03-03T13:05:17.680Z,-0.64
2018-03-03T13:06:18.067Z,-0.44
2018-03-03T13:07:18.506Z,-0.44
2018-03-03T13:08:18.911Z,-0.65
2018-03-03T13:09:19.336Z,-0.93
2018-03-03T13:10:19.744Z,-0.90
2018-03-03T13:11:20.172Z,-0.89
2018-03-03T13:12:20.594Z,-0.68
2018-03-03T13:13:21.013Z,-0.62
2018-03-03T13:14:21.447Z,-0.57
2018-03-03T13:15:21.836Z,-0.46
2018-03-03T13:16:22.260Z,-0.38
2018-03-03T13:17:22.700Z,-0.41
2018-03-03T13:18:23.087Z,-0.36
2018-03-03T13:19:23.546Z,-0.43
2018-03-03T13:20:23.930Z,-0.59
2018-03-03T13:21:24.358Z,-0.72
2018-03-03T13:22:24.783Z,-0.78